createdAt,value
2023-05-17T00:03:23.186Z,63.24
2023-05-17T00:08:24.761Z,63.76
2023-05-17T00:13:26.370Z,62.93
2023-05-17T00:18:28.087Z,63.36
2023-05-17T00:23:29.746Z,63.78
2023-05-17T00:28:31.380Z,64.58
2023-05-17T00:33:33.060Z,63.29
2023-05-17T00:38:34.763Z,63.81
2023-05-17T00:43:36.514Z,64.46
2023-05-17T00:48:38.316Z,64.51
2023-05-17T00:53:40.299Z,63.95
2023-05-17T00:58:41.957Z,63.71
2023-05-17T01:03:43.848Z,64.44
2023-05-17T01:08:47.996Z,63.84
2023-05-17T01:13:55.989Z,63.99
2023-05-17T01:19:30.253Z,63.33
2023-05-17T01:24:51.573Z,64.21
2023-05-17T01:29:55.166Z,64.39
2023-05-17T01:34:56.787Z,64.52
2023-05-17T01:39:58.448Z,65.05
2023-05-17T01:45:06.627Z,65.18
2023-05-17T01:50:09.376Z,65.48
2023-05-17T01:55:18.805Z,65.49
2023-05-17T02:00:20.936Z,65.93
2023-05-17T02:05:22.580Z,65.84
2023-05-17T02:10:24.312Z,65.78
2023-05-17T02:15:26.122Z,65.34
2023-05-17T02:20:27.813Z,66.41
2023-05-17T02:25:29.753Z,66.54
2023-05-17T02:30:31.873Z,66.78
2023-05-17T02:35:33.728Z,67.24
2023-05-17T02:40:35.411Z,67.44
2023-05-17T02:45:37.833Z,67.69
2023-05-17T02:50:40.342Z,68.41
2023-05-17T02:55:41.970Z,68.69
2023-05-17T03:00:46.500Z,69.23
2023-05-17T03:05:49.721Z,69.84
2023-05-17T03:10:52.315Z,69.54
2023-05-17T03:15:54.371Z,69.89
2023-05-17T03:20:56.714Z,69.67
2023-05-17T03:25:58.588Z,69.76
2023-05-17T03:31:02.896Z,69.74
2023-05-17T03:36:07.747Z,72.14
2023-05-17T03:41:10.596Z,70.91
2023-05-17T03:46:12.954Z,70.02
2023-05-17T03:51:16.098Z,70.00
2023-05-17T03:56:18.836Z,70.22
2023-05-17T04:01:20.770Z,70.18
2023-05-17T04:06:23.369Z,70.68
2023-05-17T04:11:27.304Z,70.82
2023-05-17T04:16:29.927Z,70.78
2023-05-17T04:21:31.729Z,70.87
2023-05-17T04:26:33.445Z,70.57
2023-05-17T04:31:35.192Z,69.83
2023-05-17T04:36:37.101Z,69.62
2023-05-17T04:41:39.696Z,69.67
2023-05-17T04:46:45.873Z,71.23
2023-05-17T04:51:48.534Z,69.96
2023-05-17T04:56:50.725Z,69.24
2023-05-17T05:02:06.792Z,69.07
2023-05-17T05:07:09.383Z,67.88
2023-05-17T05:12:11.393Z,66.21
2023-05-17T05:17:17.653Z,67.15
2023-05-17T05:22:21.042Z,65.54
2023-05-17T05:27:22.741Z,65.81
2023-05-17T05:32:25.865Z,65.49
2023-05-17T05:37:28.417Z,65.27
2023-05-17T05:42:31.111Z,64.83
2023-05-17T05:47:33.045Z,64.63
2023-05-17T05:52:34.864Z,64.63
2023-05-17T05:57:36.716Z,64.92
2023-05-17T06:02:38.692Z,65.69
2023-05-17T06:07:40.389Z,64.77
2023-05-17T06:12:42.024Z,64.47
2023-05-17T06:17:43.830Z,63.76
2023-05-17T06:22:45.522Z,64.07
2023-05-17T06:27:47.195Z,66.83
2023-05-17T06:32:48.884Z,65.18
2023-05-17T06:37:50.798Z,64.31
2023-05-17T06:42:52.562Z,65.22
2023-05-17T06:47:54.354Z,64.93
2023-05-17T06:52:56.018Z,64.30
2023-05-17T06:57:57.713Z,63.22
2023-05-17T07:02:59.429Z,63.45
2023-05-17T07:08:01.514Z,63.02
2023-05-17T07:13:03.201Z,64.93
2023-05-17T07:18:05.030Z,63.06
2023-05-17T07:23:06.961Z,63.37
2023-05-17T07:28:08.595Z,62.67
2023-05-17T07:33:10.315Z,61.87
2023-05-17T07:38:12.082Z,62.32
2023-05-17T07:43:13.706Z,61.85
2023-05-17T07:48:15.595Z,61.57
2023-05-17T07:53:17.403Z,62.07
2023-05-17T07:58:19.125Z,60.82
2023-05-17T08:03:21.509Z,60.38
2023-05-17T08:08:23.223Z,61.17
2023-05-17T08:13:24.842Z,60.69
2023-05-17T08:18:26.725Z,57.67
2023-05-17T08:23:28.449Z,59.13
2023-05-17T08:28:30.083Z,58.58
2023-05-17T08:33:31.885Z,57.99
2023-05-17T08:38:34.485Z,57.02
2023-05-17T08:43:36.305Z,55.58
2023-05-17T08:48:41.983Z,57.05
2023-05-17T08:53:47.081Z,56.06
2023-05-17T08:58:57.138Z,56.83
2023-05-17T09:04:00.476Z,57.41
2023-05-17T09:09:02.171Z,56.44
2023-05-17T09:14:06.272Z,56.77
2023-05-17T09:19:09.633Z,57.05
2023-05-17T09:24:11.290Z,58.38
2023-05-17T09:29:16.553Z,58.54
2023-05-17T09:34:19.189Z,58.09
2023-05-17T09:39:20.965Z,57.95
2023-05-17T09:44:23.449Z,58.04
2023-05-17T09:49:27.387Z,57.83
2023-05-17T09:54:32.187Z,56.06
2023-05-17T09:59:33.969Z,55.90
2023-05-17T10:04:37.615Z,55.74
2023-05-17T10:09:39.540Z,55.00
2023-05-17T10:14:41.186Z,55.61
2023-05-17T10:19:43.592Z,54.45
2023-05-17T10:24:46.576Z,55.08
2023-05-17T10:29:50.611Z,54.31
2023-05-17T10:35:05.936Z,53.29
2023-05-17T10:40:15.148Z,50.86
2023-05-17T10:45:16.870Z,49.14
2023-05-17T10:50:26.973Z,49.11
2023-05-17T10:55:41.250Z,49.40
2023-05-17T11:00:48.199Z,50.07
2023-05-17T11:06:22.028Z,49.00
2023-05-17T11:11:25.483Z,48.43
2023-05-17T11:16:37.957Z,47.33
2023-05-17T11:21:49.154Z,47.67
2023-05-17T11:26:51.398Z,50.19
2023-05-17T11:31:53.296Z,51.36
2023-05-17T11:36:55.784Z,49.63
2023-05-17T11:41:57.788Z,48.04
2023-05-17T11:47:09.535Z,49.97
2023-05-17T11:52:11.523Z,48.90
2023-05-17T11:57:16.701Z,47.72
2023-05-17T12:02:32.540Z,47.04
2023-05-17T12:07:34.483Z,47.17
2023-05-17T12:12:36.134Z,46.27
2023-05-17T12:17:42.804Z,46.03
2023-05-17T12:22:57.179Z,46.80
2023-05-17T12:28:18.574Z,45.98
2023-05-17T12:33:20.753Z,46.30
2023-05-17T12:38:22.653Z,46.12
2023-05-17T12:43:24.811Z,45.84
2023-05-17T12:48:27.226Z,44.64
2023-05-17T12:53:36.336Z,44.56
2023-05-17T12:58:37.942Z,43.31
2023-05-17T13:03:40.293Z,43.80
2023-05-17T13:08:44.089Z,44.64
2023-05-17T13:13:46.163Z,43.13
2023-05-17T13:18:52.182Z,43.55
2023-05-17T13:23:53.950Z,42.46
2023-05-17T13:28:55.652Z,44.10
2023-05-17T13:33:57.454Z,43.25
2023-05-17T13:39:02.244Z,43.80
2023-05-17T13:44:03.907Z,43.53
2023-05-17T13:49:07.637Z,43.03
2023-05-17T13:54:10.496Z,43.01
2023-05-17T13:59:12.188Z,44.47
2023-05-17T14:04:13.986Z,43.59
2023-05-17T14:09:15.810Z,43.23
2023-05-17T14:14:17.430Z,43.57
2023-05-17T14:19:19.216Z,43.31
2023-05-17T14:24:21.130Z,42.93
2023-05-17T14:29:22.775Z,42.50
2023-05-17T14:34:24.478Z,42.35
2023-05-17T14:39:26.263Z,42.78
2023-05-17T14:44:27.866Z,42.36
2023-05-17T14:49:29.482Z,42.80
2023-05-17T14:54:32.857Z,42.07
2023-05-17T14:59:35.767Z,41.05
2023-05-17T15:04:37.723Z,41.10
2023-05-17T15:09:41.472Z,41.17
2023-05-17T15:14:44.042Z,42.43
2023-05-17T15:19:45.774Z,41.30
2023-05-17T15:24:47.550Z,41.23
2023-05-17T15:29:49.157Z,42.39
2023-05-17T15:34:51.904Z,41.87
2023-05-17T15:39:53.574Z,42.04
2023-05-17T15:44:55.162Z,42.43
2023-05-17T15:49:58.202Z,41.71
2023-05-17T15:54:59.872Z,42.26
2023-05-17T16:00:01.940Z,42.20
2023-05-17T16:05:04.282Z,42.61
2023-05-17T16:10:06.706Z,40.18
2023-05-17T16:15:09.385Z,42.05
2023-05-17T16:20:12.125Z,41.79
2023-05-17T16:25:24.435Z,42.62
2023-05-17T16:30:26.431Z,41.30
2023-05-17T16:35:28.744Z,39.20
2023-05-17T16:40:30.715Z,38.97
2023-05-17T16:45:32.581Z,39.55
2023-05-17T16:50:34.263Z,38.57
2023-05-17T16:55:36.338Z,38.59
2023-05-17T17:00:38.015Z,38.51
2023-05-17T17:05:39.706Z,38.42
2023-05-17T17:10:41.348Z,38.53
2023-05-17T17:15:42.950Z,38.91
2023-05-17T17:20:45.187Z,39.26
2023-05-17T17:25:46.813Z,39.52
2023-05-17T17:30:48.537Z,39.33
2023-05-17T17:35:50.202Z,39.64
2023-05-17T17:40:51.914Z,39.30
2023-05-17T17:45:53.516Z,39.94
2023-05-17T17:50:55.613Z,39.81
2023-05-17T17:55:57.229Z,39.39
2023-05-17T18:00:58.898Z,40.07
2023-05-17T18:06:00.536Z,40.34
2023-05-17T18:11:02.524Z,40.51
2023-05-17T18:16:04.504Z,40.96
2023-05-17T18:21:07.950Z,40.36
2023-05-17T18:26:09.667Z,40.50
2023-05-17T18:31:11.430Z,40.43
2023-05-17T18:36:13.329Z,40.88
2023-05-17T18:41:14.986Z,41.51
2023-05-17T18:46:16.669Z,41.73
2023-05-17T18:51:18.334Z,42.06
2023-05-17T18:56:22.846Z,42.45
2023-05-17T19:01:25.175Z,42.57
2023-05-17T19:06:29.611Z,42.95
2023-05-17T19:11:32.447Z,43.45
2023-05-17T19:16:34.080Z,43.82
2023-05-17T19:21:35.727Z,44.33
2023-05-17T19:26:37.403Z,44.52
2023-05-17T19:31:39.052Z,44.67
2023-05-17T19:36:40.749Z,44.82
2023-05-17T19:41:42.390Z,45.24
2023-05-17T19:46:44.151Z,44.96
2023-05-17T19:51:46.700Z,45.30
2023-05-17T19:56:48.360Z,45.52
2023-05-17T20:01:50.566Z,45.63
2023-05-17T20:06:52.392Z,45.74
2023-05-17T20:11:54.126Z,45.67
2023-05-17T20:16:56.190Z,45.88
2023-05-17T20:21:57.956Z,46.17
2023-05-17T20:26:59.646Z,46.64
2023-05-17T20:32:01.483Z,46.71
2023-05-17T20:37:03.169Z,47.02
2023-05-17T20:42:05.320Z,47.07
2023-05-17T20:47:09.179Z,47.65
2023-05-17T20:52:11.107Z,47.94
2023-05-17T20:57:12.769Z,48.55
2023-05-17T21:02:14.492Z,48.56
2023-05-17T21:07:17.423Z,48.75
2023-05-17T21:12:19.048Z,49.44
2023-05-17T21:17:20.678Z,49.62
2023-05-17T21:22:22.344Z,50.00
2023-05-17T21:27:23.981Z,49.56
2023-05-17T21:32:26.527Z,50.06
2023-05-17T21:37:28.163Z,50.83
2023-05-17T21:42:29.802Z,50.65
2023-05-17T21:47:31.549Z,50.92
2023-05-17T21:52:33.438Z,51.02
2023-05-17T21:57:36.533Z,51.20
2023-05-17T22:02:42.191Z,51.04
2023-05-17T22:07:44.049Z,50.76
2023-05-17T22:12:46.720Z,51.75
2023-05-17T22:17:52.843Z,51.71
2023-05-17T22:22:55.153Z,51.48
2023-05-17T22:27:56.772Z,51.49
2023-05-17T22:32:58.441Z,51.73
2023-05-17T22:38:00.063Z,51.84
2023-05-17T22:43:01.740Z,52.39
2023-05-17T22:48:05.613Z,52.40
2023-05-17T22:53:07.336Z,52.48
2023-05-17T22:58:08.976Z,52.40
2023-05-17T23:03:13.784Z,52.81
2023-05-17T23:08:15.702Z,53.19
2023-05-17T23:13:17.845Z,53.50
2023-05-17T23:18:19.670Z,53.81
2023-05-17T23:23:23.105Z,53.73
2023-05-17T23:28:25.495Z,53.13
2023-05-17T23:33:31.083Z,53.80
2023-05-17T23:38:32.807Z,53.70
2023-05-17T23:43:34.740Z,52.99
2023-05-17T23:48:36.321Z,54.34
2023-05-17T23:53:38.037Z,55.22
2023-05-17T23:58:39.691Z,55.50
